Time;durP1;ratioP1;P1;durP2;ratioP2;P2;SDS_P1;SDS_P2;PMS_P1;PMS_P2;Temp;Humidity;BMP_temperature;BMP_pressure;BME280_temperature;BME280_humidity;BME280_pressure;Samples;Min_cycle;Max_cycle;Signal;HPM_P1;HPM_P2
2022/05/21 00:00:25;;;;;;;15.97;8.37;;;;;;;9.87;100.00;101859.81;5015006;28;20030;-90
2022/05/21 00:02:51;;;;;;;16.33;8.25;;;;;;;9.91;100.00;101863.69;5025224;28;20112;-90
2022/05/21 00:05:19;;;;;;;11.60;7.70;;;;;;;9.90;100.00;101864.72;5032253;28;20472;-90
2022/05/21 00:07:44;;;;;;;14.03;8.10;;;;;;;9.88;100.00;101861.47;5029980;28;20284;-90
2022/05/21 00:10:14;;;;;;;15.32;6.93;;;;;;;9.87;100.00;101863.34;5020452;28;20053;-90
2022/05/21 00:12:40;;;;;;;12.50;7.53;;;;;;;9.81;100.00;101850.84;5018829;28;20034;-90
2022/05/21 00:15:06;;;;;;;10.27;7.13;;;;;;;9.93;100.00;101869.63;5030120;28;20046;-90
2022/05/21 00:17:32;;;;;;;15.63;7.18;;;;;;;10.00;100.00;101855.09;5028999;28;20449;-90
2022/05/21 00:19:58;;;;;;;8.80;6.50;;;;;;;10.00;100.00;101856.97;5027730;28;20044;-90
2022/05/21 00:22:23;;;;;;;15.63;7.15;;;;;;;9.94;100.00;101852.53;5027794;28;20089;-91
2022/05/21 00:24:48;;;;;;;10.77;6.47;;;;;;;9.92;100.00;101868.81;5030196;28;20087;-90
2022/05/21 00:27:14;;;;;;;14.13;6.27;;;;;;;9.93;100.00;101869.63;5027440;28;20018;-91
2022/05/21 00:29:39;;;;;;;11.77;6.47;;;;;;;9.88;100.00;101866.81;5030084;28;20046;-92
2022/05/21 00:32:05;;;;;;;10.43;5.80;;;;;;;9.87;100.00;101866.00;5027418;28;20030;-91
2022/05/21 00:34:31;;;;;;;10.65;5.72;;;;;;;9.78;100.00;101870.03;5029933;28;20033;-91
2022/05/21 00:36:57;;;;;;;11.25;5.80;;;;;;;9.76;100.00;101864.13;5027191;28;20021;-88
2022/05/21 00:39:22;;;;;;;10.33;5.57;;;;;;;9.73;100.00;101861.88;5029731;28;20035;-90
2022/05/21 00:41:48;;;;;;;11.87;5.30;;;;;;;9.75;100.00;101859.81;5028543;28;20468;-90
2022/05/21 00:44:13;;;;;;;9.50;4.82;;;;;;;9.78;100.00;101867.34;5027830;28;20041;-88
2022/05/21 00:46:41;;;;;;;7.75;5.25;;;;;;;9.89;100.00;101866.59;5031483;28;20049;-88
2022/05/21 00:49:21;;;;;;;12.63;4.95;;;;;;;9.98;100.00;101864.41;5034540;28;20131;-89
2022/05/21 00:51:57;;;;;;;11.90;4.43;;;;;;;10.11;100.00;101877.59;5031294;28;20109;-90
2022/05/21 00:54:29;;;;;;;12.33;4.60;;;;;;;10.19;100.00;101872.97;5034149;28;20292;-89
2022/05/21 00:57:05;;;;;;;9.15;4.22;;;;;;;10.22;100.00;101869.84;5030043;28;20080;-90
2022/05/21 00:59:49;;;;;;;7.25;4.03;;;;;;;10.33;100.00;101866.34;5030021;28;20021;-90
2022/05/21 01:02:18;;;;;;;8.68;3.67;;;;;;;10.43;100.00;101863.94;5025640;28;20033;-91
2022/05/21 01:04:44;;;;;;;6.35;3.75;;;;;;;10.54;100.00;101874.94;5009376;28;20018;-90
2022/05/21 01:07:10;;;;;;;8.40;4.07;;;;;;;10.59;99.86;101875.06;5040810;28;20045;-90
2022/05/21 01:09:39;;;;;;;9.77;3.63;;;;;;;10.63;99.18;101872.72;5029154;28;20255;-90
2022/05/21 01:12:06;;;;;;;9.93;3.58;;;;;;;10.63;98.61;101860.13;5028232;28;20396;-90
2022/05/21 01:14:32;;;;;;;7.10;3.50;;;;;;;10.61;98.34;101859.53;5027137;28;20026;-90
2022/05/21 01:17:00;;;;;;;10.27;3.50;;;;;;;10.74;98.44;101867.38;5044470;28;20029;-90
2022/05/21 01:19:25;;;;;;;7.18;3.55;;;;;;;10.74;98.05;101867.38;5026810;28;20124;-90
2022/05/21 01:21:51;;;;;;;7.28;3.38;;;;;;;10.81;97.97;101874.47;5028318;28;20057;-91
2022/05/21 01:24:16;;;;;;;6.00;3.20;;;;;;;10.83;98.09;101867.00;5027544;28;20033;-91
2022/05/21 01:26:42;;;;;;;6.80;2.90;;;;;;;10.85;97.87;101867.59;5013033;28;20060;-90
2022/05/21 01:29:15;;;;;;;9.38;2.90;;;;;;;10.84;97.61;101863.28;5017283;28;20286;-91
2022/05/21 01:31:50;;;;;;;10.15;3.10;;;;;;;10.91;97.39;101869.34;5032267;28;20030;-91
2022/05/21 01:34:16;;;;;;;8.40;3.20;;;;;;;10.91;97.31;101863.97;5032670;28;20099;-91
2022/05/21 01:36:41;;;;;;;9.17;2.77;;;;;;;10.87;96.97;101862.81;5030768;28;20300;-90
2022/05/21 01:39:07;;;;;;;9.67;3.10;;;;;;;10.89;96.43;101872.25;5032721;28;20109;-91
2022/05/21 01:41:32;;;;;;;6.45;2.42;;;;;;;10.87;97.13;101854.75;5031770;28;20025;-90
2022/05/21 01:46:41;;;;;;;11.40;3.17;;;;;;;10.96;96.75;101865.94;5014076;28;20173;-90
2022/05/21 01:49:06;;;;;;;9.00;2.90;;;;;;;10.98;96.47;101864.66;5017930;28;20827;-91
2022/05/21 01:51:31;;;;;;;9.90;2.80;;;;;;;10.99;96.74;101862.81;5018043;28;20022;-91
2022/05/21 01:53:57;;;;;;;9.03;3.30;;;;;;;10.99;96.78;101865.47;5031084;28;20043;-91
2022/05/21 01:56:22;;;;;;;6.70;2.97;;;;;;;10.93;96.87;101851.16;5034431;28;20025;-91
2022/05/21 01:58:47;;;;;;;13.43;3.43;;;;;;;11.01;96.87;101863.38;5033927;28;20063;-91
2022/05/21 02:01:13;;;;;;;8.03;3.50;;;;;;;11.00;96.41;101862.56;5026416;28;20097;-90
2022/05/21 02:03:39;;;;;;;9.90;3.40;;;;;;;10.94;96.28;101852.78;5026346;28;20099;-91
2022/05/21 02:06:05;;;;;;;12.57;3.77;;;;;;;11.04;96.17;101865.59;5032480;28;20033;-91
2022/05/21 02:08:31;;;;;;;9.23;4.32;;;;;;;11.00;96.21;101851.03;5030911;28;20032;-88
2022/05/21 02:10:56;;;;;;;6.68;3.50;;;;;;;11.04;96.38;101863.72;5032137;28;20401;-89
2022/05/21 02:13:27;;;;;;;9.63;3.90;;;;;;;11.10;96.30;101869.19;5031420;28;20405;-89
2022/05/21 02:15:53;;;;;;;11.70;4.18;;;;;;;11.06;96.11;101866.97;5030029;28;20065;-91
2022/05/21 02:18:19;;;;;;;9.83;3.70;;;;;;;11.11;96.46;101868.94;5031959;28;20113;-89
2022/05/21 02:20:47;;;;;;;10.25;4.10;;;;;;;11.13;96.09;101874.09;5033153;28;20025;-90
2022/05/21 02:23:12;;;;;;;12.43;3.60;;;;;;;11.12;95.70;101869.78;5030329;28;20030;-88
2022/05/21 02:25:38;;;;;;;11.77;3.70;;;;;;;11.13;96.25;101871.41;5035473;28;20044;-89
2022/05/21 02:28:04;;;;;;;7.82;3.33;;;;;;;11.13;96.23;101874.09;5038200;28;20040;-91
2022/05/21 02:30:29;;;;;;;11.00;3.50;;;;;;;11.14;96.05;101873.84;5029267;28;20065;-89
2022/05/21 02:32:54;;;;;;;9.43;3.20;;;;;;;11.14;96.14;101875.72;5019628;28;20029;-88
2022/05/21 02:35:20;;;;;;;13.48;3.33;;;;;;;11.12;96.02;101867.91;5030649;28;20026;-89
2022/05/21 02:40:30;;;;;;;7.27;3.30;;;;;;;11.11;95.97;101860.91;5030595;28;20816;-92
2022/05/21 02:42:55;;;;;;;12.73;3.80;;;;;;;11.11;95.93;101862.78;5030828;28;20633;-91
2022/05/21 02:45:23;;;;;;;10.85;3.70;;;;;;;11.05;96.04;101860.00;5029877;28;20036;-91
2022/05/21 02:47:49;;;;;;;11.30;3.90;;;;;;;11.10;96.08;101867.31;5035228;28;20413;-92
2022/05/21 02:50:19;;;;;;;13.83;4.57;;;;;;;11.10;96.05;101863.84;5051337;28;20028;-93
2022/05/21 02:52:44;;;;;;;10.00;3.57;;;;;;;11.10;96.07;101875.38;5034688;28;20303;-91
2022/05/21 02:55:11;;;;;;;9.18;3.75;;;;;;;11.04;96.11;101869.09;5031408;28;20029;-92
2022/05/21 02:57:40;;;;;;;15.97;4.13;;;;;;;11.08;96.26;101872.09;5030552;28;20028;-92
2022/05/21 03:00:14;;;;;;;11.33;3.70;;;;;;;11.06;96.44;101875.03;5031540;28;20272;-92
2022/05/21 03:02:39;;;;;;;16.60;4.05;;;;;;;11.05;96.30;101865.34;5024206;28;20017;-88
2022/05/21 03:05:06;;;;;;;10.33;3.40;;;;;;;11.08;96.37;101873.97;5024839;28;20083;-87
2022/05/21 03:07:36;;;;;;;13.38;3.95;;;;;;;11.12;96.49;101875.16;5049638;28;20032;-88
2022/05/21 03:12:46;;;;;;;14.45;4.22;;;;;;;11.12;96.32;101880.50;5030887;28;20499;-88
2022/05/21 03:15:11;;;;;;;8.03;3.70;;;;;;;11.14;96.33;101876.53;5030391;28;20022;-87
2022/05/21 03:17:36;;;;;;;10.83;3.80;;;;;;;11.11;96.20;101873.53;5024449;28;20129;-88
2022/05/21 03:20:03;;;;;;;12.00;4.32;;;;;;;11.15;96.38;101874.66;5024306;28;20022;-88
2022/05/21 03:22:29;;;;;;;12.50;3.93;;;;;;;11.16;96.56;101876.28;5029537;28;20028;-88
2022/05/21 03:24:54;;;;;;;11.60;4.43;;;;;;;11.18;96.10;101874.19;5028771;28;20367;-88
2022/05/21 03:27:20;;;;;;;12.95;4.38;;;;;;;11.18;96.14;101864.28;5030651;28;20034;-88
2022/05/21 03:29:45;;;;;;;9.37;3.93;;;;;;;11.19;96.32;101865.09;5030403;28;20021;-88
2022/05/21 03:32:11;;;;;;;14.63;4.27;;;;;;;11.17;96.06;101873.38;5028794;28;20052;-86
2022/05/21 03:34:36;;;;;;;15.50;5.03;;;;;;;11.11;96.14;101868.16;5025782;28;20029;-89
2022/05/21 03:37:03;;;;;;;10.63;4.83;;;;;;;11.18;96.01;101871.50;5029053;28;20481;-89
2022/05/21 03:39:28;;;;;;;15.55;5.25;;;;;;;11.20;96.38;101877.47;5029612;28;20059;-88
2022/05/21 03:41:55;;;;;;;17.07;4.80;;;;;;;11.18;96.13;101872.34;5028889;28;20493;-96
2022/05/21 03:44:21;;;;;;;11.85;4.53;;;;;;;11.24;96.01;101878.63;5035781;28;20032;-96
2022/05/21 03:46:48;;;;;;;8.80;4.22;;;;;;;11.21;96.18;101879.91;5049458;28;20029;-96
2022/05/21 03:49:14;;;;;;;10.65;4.53;;;;;;;11.24;96.03;101883.16;5055325;28;20030;-96
2022/05/21 03:51:39;;;;;;;12.88;4.40;;;;;;;11.20;96.27;101875.59;5056540;28;20009;-96
2022/05/21 03:59:15;;;;;;;11.75;4.53;;;;;;;11.16;96.60;101882.47;5446333;22;20393;-86
2022/05/21 04:01:41;;;;;;;16.50;4.47;;;;;;;11.18;96.45;101882.25;5049687;28;20044;-90
2022/05/21 04:04:07;;;;;;;12.80;4.00;;;;;;;11.13;96.38;101877.59;5045899;28;20041;-90
2022/05/21 04:06:32;;;;;;;12.77;4.10;;;;;;;11.18;96.40;101880.38;5047477;28;20040;-91
2022/05/21 04:08:57;;;;;;;13.93;4.32;;;;;;;11.17;96.33;101873.38;5029373;28;20447;-91
2022/05/21 04:11:23;;;;;;;13.83;4.67;;;;;;;11.29;96.51;101889.47;5025427;28;20033;-95
2022/05/21 04:13:48;;;;;;;14.37;4.90;;;;;;;11.23;96.09;101887.72;5019286;28;20022;-96
2022/05/21 04:16:16;;;;;;;16.80;4.10;;;;;;;11.24;96.02;101902.75;5026534;28;20109;-95
2022/05/21 04:18:41;;;;;;;16.80;4.47;;;;;;;11.18;95.90;101892.97;5032613;28;20029;-95
2022/05/21 04:21:06;;;;;;;13.87;4.30;;;;;;;11.19;96.61;101886.56;5032944;28;20088;-96
2022/05/21 04:23:32;;;;;;;12.33;4.60;;;;;;;11.18;96.48;101893.81;5031714;28;20556;-94
2022/05/21 04:25:57;;;;;;;12.75;4.30;;;;;;;11.25;96.29;101903.56;5015428;28;20041;-96
2022/05/21 04:28:22;;;;;;;17.27;4.50;;;;;;;11.32;96.59;101906.94;5038435;28;20030;-94
2022/05/21 04:30:47;;;;;;;17.80;5.13;;;;;;;11.33;96.36;101909.38;5029979;28;20021;-90
2022/05/21 04:33:13;;;;;;;25.90;5.27;;;;;;;11.35;96.07;101909.16;5025267;28;20066;-91
2022/05/21 04:38:22;;;;;;;14.25;4.10;;;;;;;11.46;95.48;101920.94;5009664;28;20060;-91
2022/05/21 04:40:47;;;;;;;14.33;5.10;;;;;;;11.48;95.62;101924.19;5026028;28;20029;-90
2022/05/21 04:43:13;;;;;;;13.93;4.70;;;;;;;11.48;95.57;101921.50;5029246;28;20037;-88
2022/05/21 04:45:39;;;;;;;13.05;5.07;;;;;;;11.54;95.34;101920.53;5019102;28;20036;-88
2022/05/21 04:48:05;;;;;;;18.85;5.78;;;;;;;11.64;95.04;101931.50;5040836;28;20026;-89
2022/05/21 04:50:34;;;;;;;14.20;5.60;;;;;;;11.65;94.68;101921.56;5011759;28;20030;-90
2022/05/21 04:53:00;;;;;;;16.65;6.15;;;;;;;11.64;94.79;101925.31;5014566;28;20085;-90
2022/05/21 04:55:25;;;;;;;23.87;6.77;;;;;;;11.64;94.70;101926.13;5020552;28;20445;-88
2022/05/21 04:57:50;;;;;;;15.65;6.38;;;;;;;11.70;94.61;101923.53;5020421;28;20022;-85
2022/05/21 05:00:16;;;;;;;23.67;6.37;;;;;;;11.83;94.85;101920.59;5031421;28;20092;-87
2022/05/21 05:02:41;;;;;;;21.80;7.43;;;;;;;11.92;94.52;101932.56;5051188;28;20046;-88
2022/05/21 05:05:07;;;;;;;18.57;6.53;;;;;;;11.93;93.51;101936.09;5021050;28;20567;-91
2022/05/21 05:07:34;;;;;;;17.45;7.35;;;;;;;11.93;93.68;101922.66;5040069;28;20021;-91
2022/05/21 05:09:59;;;;;;;18.77;7.47;;;;;;;11.95;93.61;101933.97;5032859;28;20030;-91
2022/05/21 05:12:25;;;;;;;22.60;7.77;;;;;;;12.01;93.30;101927.66;5029617;28;20029;-91
2022/05/21 05:14:50;;;;;;;17.05;7.35;;;;;;;12.07;92.85;101939.31;5034052;28;20064;-90
2022/05/21 05:17:15;;;;;;;20.73;7.73;;;;;;;12.16;92.64;101943.25;5032864;28;20037;-92
2022/05/21 05:19:41;;;;;;;17.07;7.27;;;;;;;12.34;92.81;101944.09;5020709;28;20366;-90
2022/05/21 05:22:10;;;;;;;22.98;8.38;;;;;;;12.80;90.75;101950.22;5021628;28;20030;-91
2022/05/21 05:24:37;;;;;;;19.63;7.30;;;;;;;12.72;89.72;101948.75;5013716;28;20030;-92
2022/05/21 05:27:03;;;;;;;18.80;7.65;;;;;;;12.69;90.28;101957.31;5017335;28;20037;-92
2022/05/21 05:29:28;;;;;;;17.35;7.82;;;;;;;12.65;89.87;101956.19;5029340;28;20075;-91
2022/05/21 05:31:54;;;;;;;25.47;8.50;;;;;;;12.64;90.08;101959.94;5028042;28;20026;-90
2022/05/21 05:34:19;;;;;;;24.17;7.73;;;;;;;12.69;90.45;101961.88;5026956;28;20033;-91
2022/05/21 05:36:47;;;;;;;24.63;8.90;;;;;;;12.88;89.60;101946.28;5029388;28;20303;-90
2022/05/21 05:39:13;;;;;;;23.23;8.83;;;;;;;13.03;87.93;101962.69;5031639;28;20499;-91
2022/05/21 05:41:38;;;;;;;27.87;10.00;;;;;;;13.15;88.54;101965.25;5036201;28;20299;-92
2022/05/21 05:44:04;;;;;;;22.00;8.90;;;;;;;13.47;87.15;101956.59;5035314;28;20029;-90
2022/05/21 05:46:30;;;;;;;25.15;9.30;;;;;;;13.72;86.32;101966.03;5027348;28;20057;-91
2022/05/21 05:48:55;;;;;;;26.53;9.73;;;;;;;13.85;85.19;101972.13;5030832;28;20036;-91
2022/05/21 05:51:21;;;;;;;21.50;8.40;;;;;;;13.89;84.10;101968.66;5022768;28;20109;-87
2022/05/21 05:53:47;;;;;;;24.07;8.83;;;;;;;13.83;83.73;101964.28;5034681;28;20048;-90
2022/05/21 05:56:13;;;;;;;21.17;8.65;;;;;;;13.77;84.45;101970.69;5024764;28;20040;-92
2022/05/21 06:01:23;;;;;;;25.40;9.30;;;;;;;13.66;85.24;101968.91;5034603;28;20472;-89
2022/05/21 06:03:49;;;;;;;24.02;8.30;;;;;;;13.70;84.96;101975.44;5031722;28;20025;-90
2022/05/21 06:06:15;;;;;;;26.13;8.70;;;;;;;13.69;84.27;101971.94;5032777;28;20033;-88
2022/05/21 06:08:41;;;;;;;23.20;8.80;;;;;;;13.59;84.78;101977.19;5036792;28;20052;-89
2022/05/21 06:11:06;;;;;;;20.00;9.97;;;;;;;13.27;85.01;101951.69;5087260;22;20342;-94
2022/05/21 06:13:33;;;;;;;25.67;9.80;;;;;;;13.45;85.29;101979.44;5074782;28;20043;-94
2022/05/21 06:16:20;;;;;;;;;;;;;;;;;;;;;
2022/05/21 06:19:02;;;;;;;;;;;;;;;;;;;;;
2022/05/21 06:21:28;;;;;;;30.50;9.32;;;;;;;13.62;83.97;101952.47;5055671;28;20071;-95
2022/05/21 06:23:53;;;;;;;21.13;9.40;;;;;;;13.98;83.81;101985.19;5052895;28;20033;-95
2022/05/21 06:26:20;;;;;;;19.27;8.73;;;;;;;13.99;82.98;101959.88;5083081;22;20052;-96
2022/05/21 06:28:59;;;;;;;25.88;8.98;;;;;;;14.17;82.14;101955.22;5055294;28;20021;-94
2022/05/21 06:31:35;;;;;;;22.10;9.07;;;;;;;14.45;81.85;101996.44;5050162;28;20021;-96
2022/05/21 06:34:40;;;;;;;23.17;8.98;;;;;;;14.67;82.08;102002.59;5848147;22;20052;-96
2022/05/21 06:37:25;;;;;;;23.80;9.07;;;;;;;14.59;80.45;101978.78;5057203;28;20055;-96
2022/05/21 06:39:50;;;;;;;22.08;9.18;;;;;;;14.58;79.81;101981.72;5027647;28;20052;-90
2022/05/21 06:42:15;;;;;;;25.80;9.50;;;;;;;14.79;79.46;102013.25;5031203;28;20070;-92
2022/05/21 06:44:42;;;;;;;25.30;9.00;;;;;;;15.01;79.12;102004.25;5032881;28;20040;-89
2022/05/21 06:47:08;;;;;;;22.25;8.65;;;;;;;15.15;78.82;102010.00;5030677;28;20487;-93
2022/05/21 06:49:34;;;;;;;23.63;8.95;;;;;;;15.24;77.70;102004.94;5029930;28;20120;-91
2022/05/21 06:51:59;;;;;;;26.70;9.40;;;;;;;15.35;77.44;102000.38;5021262;28;20112;-90
2022/05/21 06:54:25;;;;;;;26.42;8.65;;;;;;;15.59;76.50;102015.09;5030697;28;20021;-89
2022/05/21 06:56:51;;;;;;;24.73;9.03;;;;;;;15.64;76.12;102016.22;5028980;28;20577;-89
2022/05/21 06:59:17;;;;;;;25.85;8.95;;;;;;;15.44;75.98;102012.31;5030702;28;20053;-91
2022/05/21 07:01:42;;;;;;;22.40;8.57;;;;;;;15.34;77.13;101998.78;5028872;28;20048;-90
2022/05/21 07:04:08;;;;;;;18.23;8.05;;;;;;;15.54;76.92;102017.78;5023329;28;20436;-88
2022/05/21 07:09:21;;;;;;;21.20;8.63;;;;;;;15.88;74.93;102014.72;5031892;28;20288;-95
2022/05/21 07:11:51;;;;;;;25.17;7.97;;;;;;;15.96;73.97;102013.41;5039983;28;20670;-96
2022/05/21 07:14:17;;;;;;;24.52;8.95;;;;;;;15.98;72.93;102022.03;5041578;28;20070;-96
2022/05/21 07:16:42;;;;;;;20.83;8.15;;;;;;;16.04;73.57;102031.81;5038863;28;20029;-96
2022/05/21 07:19:08;;;;;;;24.65;8.77;;;;;;;16.07;73.45;102027.75;5044404;28;20021;-95
2022/05/21 07:21:33;;;;;;;19.67;8.50;;;;;;;16.10;73.07;102029.91;5032157;28;20065;-96
2022/05/21 07:23:58;;;;;;;23.87;8.53;;;;;;;16.28;72.61;102036.75;5028484;28;20105;-85
2022/05/21 07:26:24;;;;;;;21.43;7.83;;;;;;;16.58;71.30;102042.47;5022214;28;20039;-95
2022/05/21 07:28:49;;;;;;;19.80;7.72;;;;;;;16.74;71.24;102052.22;5031406;28;20025;-90
2022/05/21 07:31:15;;;;;;;21.27;8.07;;;;;;;16.93;70.12;102062.53;5028904;28;20477;-91
2022/05/21 07:33:40;;;;;;;21.27;7.87;;;;;;;16.89;69.51;102047.91;5033637;28;20025;-94
2022/05/21 07:36:06;;;;;;;20.23;7.77;;;;;;;16.96;68.97;102051.19;5031063;28;20033;-90
2022/05/21 07:38:31;;;;;;;27.30;8.38;;;;;;;17.10;69.02;102049.56;5021242;28;20488;-93
2022/05/21 07:40:57;;;;;;;27.00;8.30;;;;;;;17.23;68.34;102041.94;5043190;28;20468;-91
2022/05/21 07:43:27;;;;;;;17.13;7.80;;;;;;;17.51;68.20;102056.00;5040668;28;20022;-96
2022/05/21 07:45:53;;;;;;;23.57;8.43;;;;;;;17.40;67.79;102056.00;5048675;28;20311;-96
2022/05/21 07:57:27;;;;;;;21.67;8.18;;;;;;;17.38;69.50;102060.06;5547775;22;21331;-96
2022/05/21 08:00:20;;;;;;;17.83;8.15;;;;;;;17.28;69.19;102063.63;5054973;22;20045;-96
2022/05/21 08:05:59;;;;;;;21.17;8.10;;;;;;;17.74;66.58;102042.88;5193228;22;20056;-93
2022/05/21 08:08:24;;;;;;;21.92;7.97;;;;;;;18.12;63.73;102048.72;5027843;28;20488;-96
2022/05/21 08:11:05;;;;;;;20.60;7.50;;;;;;;18.22;65.94;102043.25;5041150;28;20071;-95
2022/05/21 08:13:31;;;;;;;17.88;7.35;;;;;;;18.40;62.54;102068.09;5040264;28;20088;-93
2022/05/21 08:16:06;;;;;;;21.70;8.13;;;;;;;18.30;65.13;102077.13;5023521;28;20486;-95
2022/05/21 08:18:37;;;;;;;18.80;7.50;;;;;;;17.94;65.44;102042.00;5038094;28;20032;-95
2022/05/21 10:01:39;;;;;;;17.83;4.70;;;;;;;20.12;54.44;102052.63;5043160;22;20053;-95
2022/05/21 10:04:45;;;;;;;11.45;4.22;;;;;;;19.75;55.34;102076.69;5027621;28;20033;-93
2022/05/21 10:13:06;;;;;;;11.90;4.07;;;;;;;19.05;56.05;102069.81;5034661;28;20033;-94
2022/05/21 10:15:39;;;;;;;12.07;4.40;;;;;;;19.31;55.27;102073.09;5038020;28;20029;-90
2022/05/21 10:18:17;;;;;;;13.23;4.33;;;;;;;19.80;56.10;102073.94;5136902;22;20322;-95
2022/05/21 10:20:46;;;;;;;15.50;4.55;;;;;;;20.26;53.26;102069.03;5050691;28;20228;-94
2022/05/21 10:23:24;;;;;;;13.20;4.55;;;;;;;20.38;53.31;102066.69;5052357;28;20033;-93
2022/05/21 10:26:10;;;;;;;11.15;4.38;;;;;;;20.55;54.34;102070.78;5066374;28;20056;-95
2022/05/21 10:28:52;;;;;;;12.23;4.55;;;;;;;20.66;52.93;102069.50;5040423;28;20029;-93
2022/05/21 10:31:39;;;;;;;13.73;5.10;;;;;;;20.84;52.81;102077.97;5043920;28;20503;-93
2022/05/21 10:34:04;;;;;;;20.55;4.78;;;;;;;20.87;51.07;102075.50;5050371;28;20036;-94
2022/05/21 10:37:08;;;;;;;11.73;4.50;;;;;;;20.79;52.12;102072.63;5050452;28;20032;-94
2022/05/21 10:39:56;;;;;;;16.00;5.70;;;;;;;20.32;52.16;102072.50;5041422;28;20029;-93
2022/05/21 10:42:44;;;;;;;17.65;6.47;;;;;;;20.31;54.05;102088.00;5023462;28;20381;-96
2022/05/21 10:45:32;;;;;;;16.43;6.17;;;;;;;20.34;53.81;102086.63;5039325;28;20037;-95
2022/05/21 10:48:22;;;;;;;16.30;6.10;;;;;;;20.49;54.03;102082.84;5032882;28;20338;-94
2022/05/21 10:51:09;;;;;;;13.98;6.07;;;;;;;20.84;53.80;102080.69;5041840;28;20024;-92
2022/05/21 10:53:55;;;;;;;18.95;7.00;;;;;;;21.20;53.09;102079.28;5062266;28;20036;-94
2022/05/21 10:57:13;;;;;;;13.23;4.43;;;;;;;21.42;50.55;102092.25;5062128;28;20103;-91
2022/05/21 11:00:01;;;;;;;9.32;3.65;;;;;;;21.54;50.09;102078.13;5018293;28;20040;-91
2022/05/21 11:02:36;;;;;;;12.57;4.00;;;;;;;21.41;49.07;102093.34;5070382;28;20096;-93
2022/05/21 11:05:04;;;;;;;12.52;4.45;;;;;;;21.16;49.93;102087.28;5065685;28;20110;-94
2022/05/21 11:07:54;;;;;;;14.15;4.70;;;;;;;20.91;51.08;102088.50;5055951;28;20051;-95
2022/05/21 11:10:28;;;;;;;10.68;3.70;;;;;;;20.47;50.83;102085.06;5053942;28;20108;-94
2022/05/21 11:12:59;;;;;;;10.53;3.20;;;;;;;20.91;51.14;102089.31;5064105;28;20404;-94
2022/05/21 11:15:42;;;;;;;9.00;3.60;;;;;;;21.51;51.05;102093.19;5058525;28;20290;-94
2022/05/21 11:18:33;;;;;;;12.48;3.30;;;;;;;22.10;47.97;102095.28;5041613;28;20041;-94
2022/05/21 11:21:11;;;;;;;8.63;2.78;;;;;;;22.21;48.43;102096.69;5018252;28;20061;-94
2022/05/21 11:23:46;;;;;;;9.32;3.60;;;;;;;22.32;48.01;102093.72;5055209;28;20025;-94
2022/05/21 11:26:28;;;;;;;11.63;3.53;;;;;;;22.34;48.22;102097.78;5052646;28;20052;-94
2022/05/21 11:29:17;;;;;;;12.80;3.17;;;;;;;22.07;47.02;102088.53;5053162;28;20034;-93
2022/05/21 11:37:51;;;;;;;12.02;3.80;;;;;;;21.93;48.94;102085.81;5051532;28;20051;-95
2022/05/21 11:43:57;;;;;;;9.37;3.40;;;;;;;23.06;44.93;102087.06;5028345;28;20286;-94
2022/05/21 11:57:05;;;;;;;11.57;2.90;;;;;;;22.64;46.58;102076.34;5200674;22;20428;-92
2022/05/21 11:59:51;;;;;;;7.47;2.30;;;;;;;22.38;45.60;102070.66;5037709;28;20079;-94
2022/05/21 12:11:05;;;;;;;9.93;2.73;;;;;;;22.37;44.21;102077.22;5004868;28;20391;-93
2022/05/21 12:13:33;;;;;;;10.27;2.65;;;;;;;22.82;43.33;102071.78;5021038;28;20407;-94
2022/05/21 12:16:16;;;;;;;9.43;2.25;;;;;;;23.34;41.79;102070.53;5001273;28;20042;-93
2022/05/21 12:18:50;;;;;;;7.75;2.42;;;;;;;23.75;41.85;102063.09;4997106;28;20444;-94
2022/05/21 12:21:36;;;;;;;11.50;2.40;;;;;;;24.06;43.31;102072.34;4989148;28;20038;-94
2022/05/21 12:24:20;;;;;;;7.45;2.42;;;;;;;23.90;42.31;102075.53;4989801;28;20133;-93
2022/05/21 12:26:47;;;;;;;11.75;2.80;;;;;;;23.87;41.18;102070.69;4990550;28;20034;-94
2022/05/21 12:29:20;;;;;;;4.35;2.40;;;;;;;23.95;40.90;102066.34;4990653;28;20034;-94
2022/05/21 12:31:51;;;;;;;10.90;2.65;;;;;;;23.71;40.43;102057.44;4989398;28;20042;-95
2022/05/21 12:34:22;;;;;;;4.87;1.83;;;;;;;23.39;40.51;102056.69;4999834;28;20450;-87
2022/05/21 12:37:13;;;;;;;11.73;2.67;;;;;;;23.64;42.16;102065.31;4988494;28;20309;-87
2022/05/21 12:39:53;;;;;;;13.27;2.20;;;;;;;23.96;41.80;102067.97;4984347;28;20691;-84
2022/05/21 12:42:26;;;;;;;7.85;1.90;;;;;;;23.97;39.64;102064.13;4988855;28;20050;-85
2022/05/21 12:44:52;;;;;;;7.63;2.10;;;;;;;24.22;39.16;102064.44;4990472;28;20030;-85
2022/05/21 12:47:36;;;;;;;6.38;1.88;;;;;;;24.42;39.99;102055.59;4994566;28;20105;-85
2022/05/21 12:50:12;;;;;;;8.55;2.00;;;;;;;23.99;38.79;102057.19;4988865;28;20554;-85
2022/05/21 12:52:52;;;;;;;6.37;2.00;;;;;;;23.43;41.16;102065.88;4988069;28;20057;-86
2022/05/21 12:55:31;;;;;;;10.77;2.70;;;;;;;23.34;42.95;102053.28;4988941;28;20344;-85
2022/05/21 12:58:09;;;;;;;6.93;2.00;;;;;;;23.37;41.35;102061.66;4993734;28;20077;-85
2022/05/21 13:00:37;;;;;;;8.75;2.42;;;;;;;23.23;40.75;102060.97;4989744;28;20026;-84
2022/05/21 13:03:10;;;;;;;5.90;1.70;;;;;;;23.31;40.91;102046.53;4989911;28;20106;-84
2022/05/21 13:05:54;;;;;;;6.55;1.85;;;;;;;23.52;40.94;102043.22;4987818;28;20042;-84
2022/05/21 13:08:21;;;;;;;5.72;2.00;;;;;;;23.72;39.75;102056.31;5008786;28;20057;-84
2022/05/21 13:11:01;;;;;;;8.80;2.13;;;;;;;23.96;38.36;102059.75;4988873;28;20058;-85
2022/05/21 13:13:30;;;;;;;8.88;2.13;;;;;;;23.99;39.11;102057.19;5004431;28;20026;-83
2022/05/21 13:15:59;;;;;;;6.20;2.10;;;;;;;24.09;39.40;102063.50;4996123;28;20508;-84
2022/05/21 13:18:43;;;;;;;8.30;2.30;;;;;;;24.31;39.29;102055.09;4989964;28;20026;-84
2022/05/21 13:21:20;;;;;;;14.23;2.40;;;;;;;24.69;38.81;102058.31;4988765;28;21047;-84
2022/05/21 13:23:51;;;;;;;8.82;1.90;;;;;;;25.03;38.87;102062.13;4991112;28;20019;-85
2022/05/21 13:26:29;;;;;;;7.45;2.30;;;;;;;25.07;38.13;102061.16;4996204;28;20474;-84
2022/05/21 13:29:21;;;;;;;5.97;2.00;;;;;;;25.22;39.57;102051.56;4994236;28;20096;-84
2022/05/21 13:31:49;;;;;;;8.52;2.30;;;;;;;25.31;36.98;102053.47;4994946;28;20092;-84
2022/05/21 13:34:18;;;;;;;6.20;2.40;;;;;;;25.31;36.63;102040.56;5008254;28;20022;-84
2022/05/21 13:36:53;;;;;;;7.47;2.28;;;;;;;25.30;37.46;102041.69;4991851;28;20198;-83
2022/05/21 13:39:26;;;;;;;10.00;2.75;;;;;;;25.00;37.31;102043.59;4992106;28;20026;-84
2022/05/21 13:41:52;;;;;;;9.35;2.25;;;;;;;25.00;39.21;102035.38;4992615;28;20035;-85
2022/05/21 13:44:24;;;;;;;13.60;3.00;;;;;;;25.29;39.42;102039.28;4992215;28;20509;-83
2022/05/21 13:46:56;;;;;;;7.57;2.83;;;;;;;25.54;39.46;102052.13;4993042;28;20034;-81
2022/05/21 13:49:33;;;;;;;8.90;3.00;;;;;;;25.61;38.72;102043.34;4993248;28;20034;-86
2022/05/21 13:52:00;;;;;;;10.63;3.45;;;;;;;25.55;37.21;102041.94;4990980;28;20042;-85
2022/05/21 13:54:30;;;;;;;9.27;3.63;;;;;;;25.21;36.80;102038.97;4992627;28;20510;-86
2022/05/21 13:57:21;;;;;;;9.70;3.35;;;;;;;25.11;39.45;102044.84;4990879;28;20034;-85
2022/05/21 14:00:29;;;;;;;8.27;2.87;;;;;;;24.94;38.83;102041.03;4991917;28;20038;-85
2022/05/21 14:02:54;;;;;;;7.93;2.70;;;;;;;24.78;36.46;102037.22;4990756;28;20293;-86
2022/05/21 14:05:33;;;;;;;12.88;3.13;;;;;;;24.82;37.65;102037.34;4992654;28;20133;-86
2022/05/21 14:08:08;;;;;;;8.38;2.83;;;;;;;25.01;37.45;102039.72;4992958;28;20054;-87
2022/05/21 14:10:47;;;;;;;9.53;3.30;;;;;;;25.05;37.55;102036.00;4998391;28;20148;-84
2022/05/21 14:13:34;;;;;;;10.10;3.60;;;;;;;25.21;38.79;102029.97;4990970;28;20300;-85
2022/05/21 14:16:06;;;;;;;9.85;3.15;;;;;;;25.25;37.42;102028.97;4972954;28;20030;-85
2022/05/21 14:18:37;;;;;;;9.63;3.38;;;;;;;25.27;37.03;102028.66;4971224;28;20097;-84
2022/05/21 14:21:20;;;;;;;9.35;3.03;;;;;;;25.13;36.90;102011.59;4988858;28;20033;-84
2022/05/21 14:23:46;;;;;;;8.77;2.92;;;;;;;25.41;35.72;102017.44;4989959;28;20065;-84
2022/05/21 14:26:17;;;;;;;7.22;2.60;;;;;;;25.80;37.03;102020.16;4989764;28;20058;-85